sensor_id;sensor_type;location;lat;lon;timestamp;P1;durP1;ratioP1;P2;durP2;ratioP2
22064;SDS011;11197;53.110;8.468;2022-07-23T00:00:04;5.25;;;2.40;;
22064;SDS011;11197;53.110;8.468;2022-07-23T00:04:57;5.60;;;2.63;;
22064;SDS011;11197;53.110;8.468;2022-07-23T00:07:23;5.40;;;2.45;;
22064;SDS011;11197;53.110;8.468;2022-07-23T00:09:48;4.43;;;2.30;;
22064;SDS011;11197;53.110;8.468;2022-07-23T00:12:14;6.43;;;2.50;;
22064;SDS011;11197;53.110;8.468;2022-07-23T00:14:40;5.65;;;2.40;;
22064;SDS011;11197;53.110;8.468;2022-07-23T00:17:06;4.50;;;2.22;;
22064;SDS011;11197;53.110;8.468;2022-07-23T00:19:32;4.22;;;1.77;;
22064;SDS011;11197;53.110;8.468;2022-07-23T00:21:58;5.05;;;2.05;;
22064;SDS011;11197;53.110;8.468;2022-07-23T00:24:24;9.23;;;2.72;;
22064;SDS011;11197;53.110;8.468;2022-07-23T00:26:50;5.68;;;2.20;;
22064;SDS011;11197;53.110;8.468;2022-07-23T00:29:16;3.47;;;2.08;;
22064;SDS011;11197;53.110;8.468;2022-07-23T00:31:41;4.47;;;1.90;;
22064;SDS011;11197;53.110;8.468;2022-07-23T00:34:07;3.95;;;2.00;;
22064;SDS011;11197;53.110;8.468;2022-07-23T00:36:33;4.55;;;2.22;;
22064;SDS011;11197;53.110;8.468;2022-07-23T00:38:59;6.78;;;2.53;;
22064;SDS011;11197;53.110;8.468;2022-07-23T00:41:25;9.27;;;2.20;;
22064;SDS011;11197;53.110;8.468;2022-07-23T00:43:51;4.57;;;2.28;;
22064;SDS011;11197;53.110;8.468;2022-07-23T00:46:20;4.40;;;2.50;;
22064;SDS011;11197;53.110;8.468;2022-07-23T00:48:48;7.63;;;2.60;;
22064;SDS011;11197;53.110;8.468;2022-07-23T00:51:17;3.88;;;2.05;;
22064;SDS011;11197;53.110;8.468;2022-07-23T00:53:43;4.72;;;2.17;;
22064;SDS011;11197;53.110;8.468;2022-07-23T00:56:09;6.28;;;2.33;;
22064;SDS011;11197;53.110;8.468;2022-07-23T00:58:36;5.18;;;1.92;;
22064;SDS011;11197;53.110;8.468;2022-07-23T01:01:04;4.30;;;2.25;;
22064;SDS011;11197;53.110;8.468;2022-07-23T01:03:30;6.45;;;2.20;;
22064;SDS011;11197;53.110;8.468;2022-07-23T01:05:56;5.60;;;2.70;;
22064;SDS011;11197;53.110;8.468;2022-07-23T01:08:23;6.22;;;2.70;;
22064;SDS011;11197;53.110;8.468;2022-07-23T01:10:49;6.28;;;2.40;;
22064;SDS011;11197;53.110;8.468;2022-07-23T01:13:16;6.22;;;2.50;;
22064;SDS011;11197;53.110;8.468;2022-07-23T01:15:42;6.35;;;2.30;;
22064;SDS011;11197;53.110;8.468;2022-07-23T01:18:08;5.78;;;2.90;;
22064;SDS011;11197;53.110;8.468;2022-07-23T01:20:36;5.88;;;2.88;;
22064;SDS011;11197;53.110;8.468;2022-07-23T01:23:02;5.22;;;2.70;;
22064;SDS011;11197;53.110;8.468;2022-07-23T01:25:28;6.93;;;2.20;;
22064;SDS011;11197;53.110;8.468;2022-07-23T01:28:03;6.38;;;2.88;;
22064;SDS011;11197;53.110;8.468;2022-07-23T01:30:29;4.68;;;2.30;;
22064;SDS011;11197;53.110;8.468;2022-07-23T01:32:57;8.02;;;2.83;;
22064;SDS011;11197;53.110;8.468;2022-07-23T01:35:24;4.30;;;2.50;;
22064;SDS011;11197;53.110;8.468;2022-07-23T01:37:54;5.68;;;2.65;;
22064;SDS011;11197;53.110;8.468;2022-07-23T01:40:21;6.75;;;2.35;;
22064;SDS011;11197;53.110;8.468;2022-07-23T01:42:47;4.55;;;2.80;;
22064;SDS011;11197;53.110;8.468;2022-07-23T01:45:13;6.38;;;2.80;;
22064;SDS011;11197;53.110;8.468;2022-07-23T01:47:44;6.97;;;3.20;;
22064;SDS011;11197;53.110;8.468;2022-07-23T01:50:11;6.57;;;2.97;;
22064;SDS011;11197;53.110;8.468;2022-07-23T01:53:02;4.75;;;2.50;;
22064;SDS011;11197;53.110;8.468;2022-07-23T01:55:28;7.43;;;3.20;;
22064;SDS011;11197;53.110;8.468;2022-07-23T01:57:55;8.25;;;3.00;;
22064;SDS011;11197;53.110;8.468;2022-07-23T02:00:26;6.15;;;3.20;;
22064;SDS011;11197;53.110;8.468;2022-07-23T02:02:52;6.07;;;2.42;;
22064;SDS011;11197;53.110;8.468;2022-07-23T02:05:18;7.55;;;3.75;;
22064;SDS011;11197;53.110;8.468;2022-07-23T02:07:44;6.57;;;2.95;;
22064;SDS011;11197;53.110;8.468;2022-07-23T02:10:10;7.57;;;3.58;;
22064;SDS011;11197;53.110;8.468;2022-07-23T02:12:37;9.23;;;3.63;;
22064;SDS011;11197;53.110;8.468;2022-07-23T02:15:03;6.50;;;3.10;;
22064;SDS011;11197;53.110;8.468;2022-07-23T02:17:29;3.97;;;3.00;;
22064;SDS011;11197;53.110;8.468;2022-07-23T02:19:55;4.53;;;3.08;;
22064;SDS011;11197;53.110;8.468;2022-07-23T02:22:21;6.68;;;3.35;;
22064;SDS011;11197;53.110;8.468;2022-07-23T02:24:48;4.72;;;3.10;;
22064;SDS011;11197;53.110;8.468;2022-07-23T02:27:14;8.15;;;4.10;;
22064;SDS011;11197;53.110;8.468;2022-07-23T02:29:40;5.72;;;3.25;;
22064;SDS011;11197;53.110;8.468;2022-07-23T02:32:06;7.70;;;3.45;;
22064;SDS011;11197;53.110;8.468;2022-07-23T02:34:31;7.28;;;3.65;;
22064;SDS011;11197;53.110;8.468;2022-07-23T02:36:58;7.47;;;4.38;;
22064;SDS011;11197;53.110;8.468;2022-07-23T02:39:26;7.60;;;3.67;;
22064;SDS011;11197;53.110;8.468;2022-07-23T02:41:52;7.10;;;3.92;;
22064;SDS011;11197;53.110;8.468;2022-07-23T02:44:18;7.70;;;4.50;;
22064;SDS011;11197;53.110;8.468;2022-07-23T02:46:48;7.90;;;3.63;;
22064;SDS011;11197;53.110;8.468;2022-07-23T02:49:14;8.60;;;4.68;;
22064;SDS011;11197;53.110;8.468;2022-07-23T02:51:40;8.90;;;3.97;;
22064;SDS011;11197;53.110;8.468;2022-07-23T02:54:10;6.80;;;4.40;;
22064;SDS011;11197;53.110;8.468;2022-07-23T02:56:36;7.40;;;4.05;;
22064;SDS011;11197;53.110;8.468;2022-07-23T02:59:01;6.15;;;3.60;;
22064;SDS011;11197;53.110;8.468;2022-07-23T03:01:27;5.50;;;3.05;;
22064;SDS011;11197;53.110;8.468;2022-07-23T03:03:53;7.05;;;3.85;;
22064;SDS011;11197;53.110;8.468;2022-07-23T03:06:21;5.15;;;3.75;;
22064;SDS011;11197;53.110;8.468;2022-07-23T03:08:51;9.20;;;4.43;;
22064;SDS011;11197;53.110;8.468;2022-07-23T03:11:17;6.32;;;4.05;;
22064;SDS011;11197;53.110;8.468;2022-07-23T03:13:43;8.60;;;4.30;;
22064;SDS011;11197;53.110;8.468;2022-07-23T03:16:09;7.05;;;4.47;;
22064;SDS011;11197;53.110;8.468;2022-07-23T03:18:36;5.70;;;4.10;;
22064;SDS011;11197;53.110;8.468;2022-07-23T03:21:03;8.18;;;4.90;;
22064;SDS011;11197;53.110;8.468;2022-07-23T03:23:30;5.63;;;3.58;;
22064;SDS011;11197;53.110;8.468;2022-07-23T03:25:56;6.55;;;3.53;;
22064;SDS011;11197;53.110;8.468;2022-07-23T03:28:22;7.15;;;4.10;;
22064;SDS011;11197;53.110;8.468;2022-07-23T03:30:48;7.68;;;4.22;;
22064;SDS011;11197;53.110;8.468;2022-07-23T03:33:15;6.53;;;4.05;;
22064;SDS011;11197;53.110;8.468;2022-07-23T03:35:42;7.10;;;4.30;;
22064;SDS011;11197;53.110;8.468;2022-07-23T03:38:25;7.70;;;3.80;;
22064;SDS011;11197;53.110;8.468;2022-07-23T03:40:50;6.50;;;4.07;;
22064;SDS011;11197;53.110;8.468;2022-07-23T03:43:17;7.68;;;3.50;;
22064;SDS011;11197;53.110;8.468;2022-07-23T03:45:43;6.22;;;3.88;;
22064;SDS011;11197;53.110;8.468;2022-07-23T03:48:09;7.15;;;3.75;;
22064;SDS011;11197;53.110;8.468;2022-07-23T03:50:35;7.90;;;4.28;;
22064;SDS011;11197;53.110;8.468;2022-07-23T03:53:02;7.88;;;4.10;;
22064;SDS011;11197;53.110;8.468;2022-07-23T03:55:31;5.53;;;3.90;;
22064;SDS011;11197;53.110;8.468;2022-07-23T03:57:57;6.22;;;3.90;;
22064;SDS011;11197;53.110;8.468;2022-07-23T04:00:23;9.45;;;4.70;;
22064;SDS011;11197;53.110;8.468;2022-07-23T04:02:50;9.98;;;4.15;;
22064;SDS011;11197;53.110;8.468;2022-07-23T04:05:16;6.72;;;4.40;;
22064;SDS011;11197;53.110;8.468;2022-07-23T04:07:45;5.10;;;3.25;;
22064;SDS011;11197;53.110;8.468;2022-07-23T04:10:11;6.75;;;4.30;;
22064;SDS011;11197;53.110;8.468;2022-07-23T04:12:38;6.13;;;3.80;;
22064;SDS011;11197;53.110;8.468;2022-07-23T04:15:04;6.35;;;3.92;;
22064;SDS011;11197;53.110;8.468;2022-07-23T04:17:33;5.50;;;4.05;;
22064;SDS011;11197;53.110;8.468;2022-07-23T04:19:59;6.38;;;4.10;;
22064;SDS011;11197;53.110;8.468;2022-07-23T04:22:30;7.60;;;3.80;;
22064;SDS011;11197;53.110;8.468;2022-07-23T04:24:56;7.35;;;5.13;;
22064;SDS011;11197;53.110;8.468;2022-07-23T04:27:22;8.38;;;5.03;;
22064;SDS011;11197;53.110;8.468;2022-07-23T04:29:48;10.02;;;4.60;;
22064;SDS011;11197;53.110;8.468;2022-07-23T04:32:14;7.32;;;4.38;;
22064;SDS011;11197;53.110;8.468;2022-07-23T04:34:40;8.05;;;4.82;;
22064;SDS011;11197;53.110;8.468;2022-07-23T04:37:06;6.68;;;4.10;;
22064;SDS011;11197;53.110;8.468;2022-07-23T04:39:32;6.30;;;4.50;;
22064;SDS011;11197;53.110;8.468;2022-07-23T04:41:58;7.22;;;4.40;;
22064;SDS011;11197;53.110;8.468;2022-07-23T04:44:24;5.65;;;4.22;;
22064;SDS011;11197;53.110;8.468;2022-07-23T04:46:50;8.98;;;4.63;;
22064;SDS011;11197;53.110;8.468;2022-07-23T04:49:16;4.38;;;3.38;;
22064;SDS011;11197;53.110;8.468;2022-07-23T04:51:43;9.20;;;4.22;;
22064;SDS011;11197;53.110;8.468;2022-07-23T04:54:08;6.32;;;4.70;;
22064;SDS011;11197;53.110;8.468;2022-07-23T04:56:35;7.20;;;4.95;;
22064;SDS011;11197;53.110;8.468;2022-07-23T04:59:01;7.18;;;4.80;;
22064;SDS011;11197;53.110;8.468;2022-07-23T05:01:27;6.22;;;4.70;;
22064;SDS011;11197;53.110;8.468;2022-07-23T05:03:53;6.82;;;4.25;;
22064;SDS011;11197;53.110;8.468;2022-07-23T05:06:19;9.10;;;4.72;;
22064;SDS011;11197;53.110;8.468;2022-07-23T05:08:47;6.22;;;4.80;;
22064;SDS011;11197;53.110;8.468;2022-07-23T05:11:13;7.65;;;5.13;;
22064;SDS011;11197;53.110;8.468;2022-07-23T05:13:39;8.25;;;5.45;;
22064;SDS011;11197;53.110;8.468;2022-07-23T05:16:06;7.05;;;5.10;;
22064;SDS011;11197;53.110;8.468;2022-07-23T05:18:34;8.95;;;5.40;;
22064;SDS011;11197;53.110;8.468;2022-07-23T05:21:00;8.18;;;5.50;;
22064;SDS011;11197;53.110;8.468;2022-07-23T05:23:26;8.30;;;5.20;;
22064;SDS011;11197;53.110;8.468;2022-07-23T05:25:52;7.38;;;5.50;;
22064;SDS011;11197;53.110;8.468;2022-07-23T05:28:18;8.75;;;5.60;;
22064;SDS011;11197;53.110;8.468;2022-07-23T05:30:44;9.60;;;6.10;;
22064;SDS011;11197;53.110;8.468;2022-07-23T05:33:13;10.20;;;5.50;;
22064;SDS011;11197;53.110;8.468;2022-07-23T05:35:40;6.90;;;4.57;;
22064;SDS011;11197;53.110;8.468;2022-07-23T05:38:32;10.07;;;5.80;;
22064;SDS011;11197;53.110;8.468;2022-07-23T05:40:59;9.88;;;5.80;;
22064;SDS011;11197;53.110;8.468;2022-07-23T05:43:25;8.07;;;5.40;;
22064;SDS011;11197;53.110;8.468;2022-07-23T05:45:52;8.00;;;5.15;;
22064;SDS011;11197;53.110;8.468;2022-07-23T05:48:18;11.80;;;5.80;;
22064;SDS011;11197;53.110;8.468;2022-07-23T05:50:57;8.23;;;5.18;;
22064;SDS011;11197;53.110;8.468;2022-07-23T05:53:33;9.20;;;6.03;;
22064;SDS011;11197;53.110;8.468;2022-07-23T05:56:03;7.43;;;4.90;;
22064;SDS011;11197;53.110;8.468;2022-07-23T05:58:31;8.63;;;5.55;;
22064;SDS011;11197;53.110;8.468;2022-07-23T06:00:57;9.55;;;4.88;;
22064;SDS011;11197;53.110;8.468;2022-07-23T06:03:23;5.70;;;4.90;;
22064;SDS011;11197;53.110;8.468;2022-07-23T06:05:50;7.32;;;5.28;;
22064;SDS011;11197;53.110;8.468;2022-07-23T06:08:16;10.93;;;5.22;;
22064;SDS011;11197;53.110;8.468;2022-07-23T06:10:42;9.60;;;5.10;;
22064;SDS011;11197;53.110;8.468;2022-07-23T06:13:08;7.80;;;4.35;;
22064;SDS011;11197;53.110;8.468;2022-07-23T06:15:35;7.40;;;4.07;;
22064;SDS011;11197;53.110;8.468;2022-07-23T06:18:01;7.97;;;4.05;;
22064;SDS011;11197;53.110;8.468;2022-07-23T06:20:26;6.93;;;3.55;;
22064;SDS011;11197;53.110;8.468;2022-07-23T06:22:52;5.25;;;2.97;;
22064;SDS011;11197;53.110;8.468;2022-07-23T06:25:18;6.55;;;2.83;;
22064;SDS011;11197;53.110;8.468;2022-07-23T06:27:46;6.18;;;2.85;;
22064;SDS011;11197;53.110;8.468;2022-07-23T06:30:12;6.78;;;2.53;;
22064;SDS011;11197;53.110;8.468;2022-07-23T06:32:39;4.53;;;2.38;;
22064;SDS011;11197;53.110;8.468;2022-07-23T06:35:05;5.45;;;2.67;;
22064;SDS011;11197;53.110;8.468;2022-07-23T06:37:31;3.72;;;2.47;;
22064;SDS011;11197;53.110;8.468;2022-07-23T06:39:56;5.72;;;2.67;;
22064;SDS011;11197;53.110;8.468;2022-07-23T06:42:22;6.03;;;2.75;;
22064;SDS011;11197;53.110;8.468;2022-07-23T06:44:55;6.78;;;2.70;;
22064;SDS011;11197;53.110;8.468;2022-07-23T06:47:21;5.03;;;2.10;;
22064;SDS011;11197;53.110;8.468;2022-07-23T06:49:47;8.85;;;2.47;;
22064;SDS011;11197;53.110;8.468;2022-07-23T06:52:13;5.72;;;2.00;;
22064;SDS011;11197;53.110;8.468;2022-07-23T06:54:39;6.70;;;2.40;;
22064;SDS011;11197;53.110;8.468;2022-07-23T06:57:05;6.43;;;1.92;;
22064;SDS011;11197;53.110;8.468;2022-07-23T06:59:31;6.22;;;2.50;;
22064;SDS011;11197;53.110;8.468;2022-07-23T07:01:58;4.32;;;2.15;;
22064;SDS011;11197;53.110;8.468;2022-07-23T07:04:24;4.40;;;2.33;;
22064;SDS011;11197;53.110;8.468;2022-07-23T07:06:50;5.68;;;2.55;;
22064;SDS011;11197;53.110;8.468;2022-07-23T07:09:16;4.30;;;2.40;;
22064;SDS011;11197;53.110;8.468;2022-07-23T07:11:43;6.07;;;2.25;;
22064;SDS011;11197;53.110;8.468;2022-07-23T07:14:08;7.72;;;2.05;;
22064;SDS011;11197;53.110;8.468;2022-07-23T07:16:34;3.72;;;1.90;;
22064;SDS011;11197;53.110;8.468;2022-07-23T07:19:00;4.82;;;2.00;;
22064;SDS011;11197;53.110;8.468;2022-07-23T07:21:26;5.78;;;1.73;;
22064;SDS011;11197;53.110;8.468;2022-07-23T07:23:52;4.57;;;1.60;;
22064;SDS011;11197;53.110;8.468;2022-07-23T07:26:17;5.00;;;1.58;;
22064;SDS011;11197;53.110;8.468;2022-07-23T07:28:43;4.18;;;1.67;;
22064;SDS011;11197;53.110;8.468;2022-07-23T07:31:09;6.10;;;1.90;;
22064;SDS011;11197;53.110;8.468;2022-07-23T07:33:35;2.92;;;1.60;;
22064;SDS011;11197;53.110;8.468;2022-07-23T07:36:01;3.88;;;1.88;;
22064;SDS011;11197;53.110;8.468;2022-07-23T07:38:28;2.83;;;1.40;;
22064;SDS011;11197;53.110;8.468;2022-07-23T07:40:54;4.35;;;1.42;;
22064;SDS011;11197;53.110;8.468;2022-07-23T07:43:20;4.22;;;1.60;;
22064;SDS011;11197;53.110;8.468;2022-07-23T07:45:45;3.65;;;1.30;;
22064;SDS011;11197;53.110;8.468;2022-07-23T07:48:11;5.63;;;1.75;;
22064;SDS011;11197;53.110;8.468;2022-07-23T07:50:37;7.03;;;1.92;;
22064;SDS011;11197;53.110;8.468;2022-07-23T07:53:03;6.55;;;1.98;;
22064;SDS011;11197;53.110;8.468;2022-07-23T07:55:29;5.75;;;1.40;;
22064;SDS011;11197;53.110;8.468;2022-07-23T07:57:56;3.78;;;1.40;;
22064;SDS011;11197;53.110;8.468;2022-07-23T08:00:22;3.72;;;1.30;;
22064;SDS011;11197;53.110;8.468;2022-07-23T08:02:48;3.35;;;1.35;;
22064;SDS011;11197;53.110;8.468;2022-07-23T08:05:18;4.28;;;0.90;;
22064;SDS011;11197;53.110;8.468;2022-07-23T08:07:49;3.60;;;1.08;;
22064;SDS011;11197;53.110;8.468;2022-07-23T08:10:15;4.88;;;1.40;;
22064;SDS011;11197;53.110;8.468;2022-07-23T08:12:42;4.63;;;1.40;;
22064;SDS011;11197;53.110;8.468;2022-07-23T08:15:10;6.25;;;1.95;;
22064;SDS011;11197;53.110;8.468;2022-07-23T08:17:37;4.47;;;1.45;;
22064;SDS011;11197;53.110;8.468;2022-07-23T08:20:04;4.38;;;1.80;;
22064;SDS011;11197;53.110;8.468;2022-07-23T08:25:21;3.28;;;1.70;;
22064;SDS011;11197;53.110;8.468;2022-07-23T08:27:49;6.07;;;1.55;;
22064;SDS011;11197;53.110;8.468;2022-07-23T08:30:16;5.85;;;1.80;;
22064;SDS011;11197;53.110;8.468;2022-07-23T08:32:49;3.17;;;1.60;;
22064;SDS011;11197;53.110;8.468;2022-07-23T08:35:22;3.47;;;1.67;;
22064;SDS011;11197;53.110;8.468;2022-07-23T08:37:53;5.05;;;1.60;;
22064;SDS011;11197;53.110;8.468;2022-07-23T08:40:20;6.57;;;1.60;;
22064;SDS011;11197;53.110;8.468;2022-07-23T08:42:47;3.05;;;1.20;;
22064;SDS011;11197;53.110;8.468;2022-07-23T08:45:15;3.35;;;1.30;;
22064;SDS011;11197;53.110;8.468;2022-07-23T08:47:50;2.83;;;1.20;;
22064;SDS011;11197;53.110;8.468;2022-07-23T08:50:18;5.05;;;1.20;;
22064;SDS011;11197;53.110;8.468;2022-07-23T08:52:44;3.42;;;1.02;;
22064;SDS011;11197;53.110;8.468;2022-07-23T08:55:12;2.95;;;1.10;;
22064;SDS011;11197;53.110;8.468;2022-07-23T08:57:38;2.50;;;0.90;;
22064;SDS011;11197;53.110;8.468;2022-07-23T09:00:04;3.97;;;0.80;;
22064;SDS011;11197;53.110;8.468;2022-07-23T09:02:37;2.28;;;0.77;;
22064;SDS011;11197;53.110;8.468;2022-07-23T09:05:05;1.88;;;0.60;;
22064;SDS011;11197;53.110;8.468;2022-07-23T09:07:35;2.25;;;0.70;;
22064;SDS011;11197;53.110;8.468;2022-07-23T09:10:09;1.40;;;0.55;;
22064;SDS011;11197;53.110;8.468;2022-07-23T09:12:37;3.10;;;0.57;;
22064;SDS011;11197;53.110;8.468;2022-07-23T09:15:05;2.25;;;0.70;;
22064;SDS011;11197;53.110;8.468;2022-07-23T09:17:37;2.58;;;0.73;;
22064;SDS011;11197;53.110;8.468;2022-07-23T09:20:11;2.05;;;0.70;;
22064;SDS011;11197;53.110;8.468;2022-07-23T09:22:44;1.08;;;0.40;;
22064;SDS011;11197;53.110;8.468;2022-07-23T09:25:16;1.73;;;0.50;;
22064;SDS011;11197;53.110;8.468;2022-07-23T09:27:45;2.67;;;0.60;;
22064;SDS011;11197;53.110;8.468;2022-07-23T09:30:24;1.55;;;0.50;;
22064;SDS011;11197;53.110;8.468;2022-07-23T09:35:46;3.15;;;0.70;;
22064;SDS011;11197;53.110;8.468;2022-07-23T09:38:21;3.25;;;0.60;;
22064;SDS011;11197;53.110;8.468;2022-07-23T09:41:07;3.45;;;0.73;;
22064;SDS011;11197;53.110;8.468;2022-07-23T09:43:38;1.05;;;0.47;;
22064;SDS011;11197;53.110;8.468;2022-07-23T09:46:20;2.92;;;0.60;;
22064;SDS011;11197;53.110;8.468;2022-07-23T09:48:51;1.20;;;0.60;;
22064;SDS011;11197;53.110;8.468;2022-07-23T09:51:18;1.90;;;0.52;;
22064;SDS011;11197;53.110;8.468;2022-07-23T09:53:54;1.40;;;0.52;;
22064;SDS011;11197;53.110;8.468;2022-07-23T09:56:20;2.42;;;0.50;;
22064;SDS011;11197;53.110;8.468;2022-07-23T09:58:49;2.20;;;0.43;;
22064;SDS011;11197;53.110;8.468;2022-07-23T10:01:28;2.22;;;0.68;;
22064;SDS011;11197;53.110;8.468;2022-07-23T10:03:57;2.70;;;0.50;;
22064;SDS011;11197;53.110;8.468;2022-07-23T10:06:51;2.97;;;0.68;;
22064;SDS011;11197;53.110;8.468;2022-07-23T10:09:39;2.35;;;0.60;;
22064;SDS011;11197;53.110;8.468;2022-07-23T10:12:30;2.10;;;0.50;;
22064;SDS011;11197;53.110;8.468;2022-07-23T10:15:17;1.23;;;0.47;;
22064;SDS011;11197;53.110;8.468;2022-07-23T10:17:44;1.45;;;0.60;;
22064;SDS011;11197;53.110;8.468;2022-07-23T10:20:13;1.23;;;0.43;;
22064;SDS011;11197;53.110;8.468;2022-07-23T10:23:23;1.50;;;0.60;;
22064;SDS011;11197;53.110;8.468;2022-07-23T10:26:05;2.67;;;0.70;;
22064;SDS011;11197;53.110;8.468;2022-07-23T10:31:38;1.65;;;0.50;;
22064;SDS011;11197;53.110;8.468;2022-07-23T10:34:35;1.48;;;0.63;;
22064;SDS011;11197;53.110;8.468;2022-07-23T10:37:16;4.13;;;0.82;;
22064;SDS011;11197;53.110;8.468;2022-07-23T10:42:52;2.05;;;0.60;;
22064;SDS011;11197;53.110;8.468;2022-07-23T10:47:54;3.33;;;0.60;;
22064;SDS011;11197;53.110;8.468;2022-07-23T10:50:23;1.70;;;0.60;;
22064;SDS011;11197;53.110;8.468;2022-07-23T10:58:06;1.45;;;0.50;;
22064;SDS011;11197;53.110;8.468;2022-07-23T11:00:35;3.22;;;0.60;;
22064;SDS011;11197;53.110;8.468;2022-07-23T11:03:02;1.83;;;0.60;;
22064;SDS011;11197;53.110;8.468;2022-07-23T11:05:43;0.88;;;0.40;;
22064;SDS011;11197;53.110;8.468;2022-07-23T11:08:10;1.95;;;0.60;;
22064;SDS011;11197;53.110;8.468;2022-07-23T11:10:43;2.88;;;0.52;;
22064;SDS011;11197;53.110;8.468;2022-07-23T11:31:52;1.92;;;0.57;;
22064;SDS011;11197;53.110;8.468;2022-07-23T11:36:58;1.65;;;0.43;;
22064;SDS011;11197;53.110;8.468;2022-07-23T11:39:26;1.58;;;0.50;;
22064;SDS011;11197;53.110;8.468;2022-07-23T11:41:53;1.65;;;0.50;;
22064;SDS011;11197;53.110;8.468;2022-07-23T11:46:59;1.45;;;0.47;;
22064;SDS011;11197;53.110;8.468;2022-07-23T11:49:28;1.42;;;0.45;;
22064;SDS011;11197;53.110;8.468;2022-07-23T11:52:12;2.38;;;0.57;;
22064;SDS011;11197;53.110;8.468;2022-07-23T11:54:52;2.60;;;0.60;;
22064;SDS011;11197;53.110;8.468;2022-07-23T11:57:24;0.75;;;0.30;;
22064;SDS011;11197;53.110;8.468;2022-07-23T11:59:53;1.77;;;0.50;;
22064;SDS011;11197;53.110;8.468;2022-07-23T12:02:22;1.67;;;0.40;;
22064;SDS011;11197;53.110;8.468;2022-07-23T12:04:49;2.92;;;0.38;;
22064;SDS011;11197;53.110;8.468;2022-07-23T12:07:49;2.58;;;0.43;;
22064;SDS011;11197;53.110;8.468;2022-07-23T12:10:22;1.17;;;0.40;;
22064;SDS011;11197;53.110;8.468;2022-07-23T12:12:49;1.70;;;0.40;;
22064;SDS011;11197;53.110;8.468;2022-07-23T12:18:03;1.30;;;0.37;;
22064;SDS011;11197;53.110;8.468;2022-07-23T12:20:31;1.50;;;0.73;;
22064;SDS011;11197;53.110;8.468;2022-07-23T12:23:03;1.02;;;0.30;;
22064;SDS011;11197;53.110;8.468;2022-07-23T12:25:31;2.40;;;0.45;;
22064;SDS011;11197;53.110;8.468;2022-07-23T12:28:07;2.83;;;0.60;;
22064;SDS011;11197;53.110;8.468;2022-07-23T12:30:41;1.45;;;0.40;;
22064;SDS011;11197;53.110;8.468;2022-07-23T12:33:08;1.77;;;0.50;;
22064;SDS011;11197;53.110;8.468;2022-07-23T12:35:40;1.63;;;0.50;;
22064;SDS011;11197;53.110;8.468;2022-07-23T12:38:12;1.40;;;0.60;;
22064;SDS011;11197;53.110;8.468;2022-07-23T12:43:11;2.65;;;0.65;;
22064;SDS011;11197;53.110;8.468;2022-07-23T12:48:25;2.10;;;0.50;;
22064;SDS011;11197;53.110;8.468;2022-07-23T12:53:22;2.13;;;0.73;;
22064;SDS011;11197;53.110;8.468;2022-07-23T12:56:06;2.30;;;0.60;;
22064;SDS011;11197;53.110;8.468;2022-07-23T12:58:44;1.38;;;0.50;;
22064;SDS011;11197;53.110;8.468;2022-07-23T13:01:42;2.17;;;0.60;;
22064;SDS011;11197;53.110;8.468;2022-07-23T13:04:09;2.38;;;0.60;;
22064;SDS011;11197;53.110;8.468;2022-07-23T13:09:08;1.23;;;0.40;;
22064;SDS011;11197;53.110;8.468;2022-07-23T13:11:35;2.35;;;0.60;;
22064;SDS011;11197;53.110;8.468;2022-07-23T13:14:01;1.85;;;0.52;;
22064;SDS011;11197;53.110;8.468;2022-07-23T13:16:28;4.57;;;0.70;;
22064;SDS011;11197;53.110;8.468;2022-07-23T13:18:55;3.03;;;0.50;;
22064;SDS011;11197;53.110;8.468;2022-07-23T13:21:22;1.90;;;0.55;;
22064;SDS011;11197;53.110;8.468;2022-07-23T13:23:48;1.15;;;0.50;;
22064;SDS011;11197;53.110;8.468;2022-07-23T13:26:14;1.10;;;0.50;;
22064;SDS011;11197;53.110;8.468;2022-07-23T13:28:40;2.05;;;0.73;;
22064;SDS011;11197;53.110;8.468;2022-07-23T13:31:06;1.98;;;0.52;;
22064;SDS011;11197;53.110;8.468;2022-07-23T13:33:32;2.03;;;0.50;;
22064;SDS011;11197;53.110;8.468;2022-07-23T13:35:58;2.03;;;0.50;;
22064;SDS011;11197;53.110;8.468;2022-07-23T13:38:24;1.15;;;0.45;;
22064;SDS011;11197;53.110;8.468;2022-07-23T13:40:51;5.25;;;0.77;;
22064;SDS011;11197;53.110;8.468;2022-07-23T13:43:18;1.15;;;0.50;;
22064;SDS011;11197;53.110;8.468;2022-07-23T13:45:46;1.63;;;0.70;;
22064;SDS011;11197;53.110;8.468;2022-07-23T13:48:12;0.90;;;0.55;;
22064;SDS011;11197;53.110;8.468;2022-07-23T13:50:39;3.10;;;0.60;;
22064;SDS011;11197;53.110;8.468;2022-07-23T13:53:08;1.42;;;0.40;;
22064;SDS011;11197;53.110;8.468;2022-07-23T13:55:36;2.38;;;0.68;;
22064;SDS011;11197;53.110;8.468;2022-07-23T13:58:03;1.35;;;0.50;;
22064;SDS011;11197;53.110;8.468;2022-07-23T14:00:29;2.83;;;0.60;;
22064;SDS011;11197;53.110;8.468;2022-07-23T14:02:56;2.58;;;0.52;;
22064;SDS011;11197;53.110;8.468;2022-07-23T14:05:23;3.13;;;0.70;;
22064;SDS011;11197;53.110;8.468;2022-07-23T14:07:52;2.05;;;0.70;;
22064;SDS011;11197;53.110;8.468;2022-07-23T14:10:19;1.77;;;0.70;;
22064;SDS011;11197;53.110;8.468;2022-07-23T14:12:47;3.10;;;0.70;;
22064;SDS011;11197;53.110;8.468;2022-07-23T14:15:13;2.10;;;0.70;;
22064;SDS011;11197;53.110;8.468;2022-07-23T14:17:40;1.80;;;0.60;;
22064;SDS011;11197;53.110;8.468;2022-07-23T14:20:08;3.95;;;0.70;;
22064;SDS011;11197;53.110;8.468;2022-07-23T14:22:35;1.85;;;0.65;;
22064;SDS011;11197;53.110;8.468;2022-07-23T14:25:02;0.75;;;0.50;;
22064;SDS011;11197;53.110;8.468;2022-07-23T14:27:29;3.05;;;0.70;;
22064;SDS011;11197;53.110;8.468;2022-07-23T14:29:55;3.40;;;0.65;;
22064;SDS011;11197;53.110;8.468;2022-07-23T14:32:22;1.38;;;0.65;;
22064;SDS011;11197;53.110;8.468;2022-07-23T14:34:48;2.13;;;0.50;;
22064;SDS011;11197;53.110;8.468;2022-07-23T14:37:15;2.97;;;0.50;;
22064;SDS011;11197;53.110;8.468;2022-07-23T14:39:41;2.85;;;0.52;;
22064;SDS011;11197;53.110;8.468;2022-07-23T14:42:08;0.75;;;0.40;;
22064;SDS011;11197;53.110;8.468;2022-07-23T14:44:35;3.35;;;0.60;;
22064;SDS011;11197;53.110;8.468;2022-07-23T14:47:02;1.52;;;0.50;;
22064;SDS011;11197;53.110;8.468;2022-07-23T14:49:29;2.20;;;0.70;;
22064;SDS011;11197;53.110;8.468;2022-07-23T14:51:59;4.07;;;0.65;;
22064;SDS011;11197;53.110;8.468;2022-07-23T14:54:26;1.92;;;0.80;;
22064;SDS011;11197;53.110;8.468;2022-07-23T14:56:53;2.83;;;1.02;;
22064;SDS011;11197;53.110;8.468;2022-07-23T14:59:19;1.98;;;1.00;;
22064;SDS011;11197;53.110;8.468;2022-07-23T15:01:45;2.08;;;0.60;;
22064;SDS011;11197;53.110;8.468;2022-07-23T15:04:11;2.38;;;0.50;;
22064;SDS011;11197;53.110;8.468;2022-07-23T15:06:37;2.33;;;0.60;;
22064;SDS011;11197;53.110;8.468;2022-07-23T15:09:04;2.92;;;0.88;;
22064;SDS011;11197;53.110;8.468;2022-07-23T15:11:30;2.60;;;0.80;;
22064;SDS011;11197;53.110;8.468;2022-07-23T15:13:59;1.95;;;0.60;;
22064;SDS011;11197;53.110;8.468;2022-07-23T15:16:26;3.60;;;0.63;;
22064;SDS011;11197;53.110;8.468;2022-07-23T15:18:53;1.40;;;0.70;;
22064;SDS011;11197;53.110;8.468;2022-07-23T15:21:19;1.63;;;0.70;;
22064;SDS011;11197;53.110;8.468;2022-07-23T15:23:45;2.60;;;0.93;;
22064;SDS011;11197;53.110;8.468;2022-07-23T15:26:12;5.15;;;0.90;;
22064;SDS011;11197;53.110;8.468;2022-07-23T15:28:40;2.33;;;0.70;;
22064;SDS011;11197;53.110;8.468;2022-07-23T15:31:06;1.23;;;0.50;;
22064;SDS011;11197;53.110;8.468;2022-07-23T15:33:33;2.28;;;0.60;;
22064;SDS011;11197;53.110;8.468;2022-07-23T15:36:02;2.65;;;0.65;;
22064;SDS011;11197;53.110;8.468;2022-07-23T15:38:28;6.63;;;0.77;;
22064;SDS011;11197;53.110;8.468;2022-07-23T15:40:54;1.17;;;0.50;;
22064;SDS011;11197;53.110;8.468;2022-07-23T15:43:22;2.58;;;0.70;;
22064;SDS011;11197;53.110;8.468;2022-07-23T15:45:50;2.88;;;0.70;;
22064;SDS011;11197;53.110;8.468;2022-07-23T15:48:17;2.25;;;0.60;;
22064;SDS011;11197;53.110;8.468;2022-07-23T15:50:44;1.83;;;0.70;;
22064;SDS011;11197;53.110;8.468;2022-07-23T15:53:12;3.00;;;0.75;;